Time;durP1;ratioP1;P1;durP2;ratioP2;P2;SDS_P1;SDS_P2;PMS_P1;PMS_P2;Temp;Humidity;BMP_temperature;BMP_pressure;BME280_temperature;BME280_humidity;BME280_pressure;Samples;Min_cycle;Max_cycle;Signal;HPM_P1;HPM_P2
2023/07/21 00:00:10;;;;;;;7.03;1.13;;;16.30;99.90;;;;;;5021369;28;20543;-66
2023/07/21 00:02:38;;;;;;;2.92;0.98;;;16.30;99.90;;;;;;5015945;28;20053;-66
2023/07/21 00:05:06;;;;;;;2.58;0.95;;;16.30;99.90;;;;;;5012225;28;20837;-66
2023/07/21 00:07:35;;;;;;;4.03;0.70;;;16.30;99.90;;;;;;5019970;28;20179;-66
2023/07/21 00:10:09;;;;;;;2.75;1.00;;;16.30;99.90;;;;;;5018328;28;20064;-67
2023/07/21 00:12:47;;;;;;;0.77;0.70;;;16.30;99.90;;;;;;5006712;28;20092;-65
2023/07/21 00:15:17;;;;;;;4.50;0.88;;;16.20;99.90;;;;;;5021118;28;20052;-68
2023/07/21 00:17:47;;;;;;;;;;;16.20;99.90;;;;;;5020813;28;20052;-65
2023/07/21 00:20:21;;;;;;;4.47;1.33;;;16.20;99.90;;;;;;5020414;28;19931;-65
2023/07/21 00:22:49;;;;;;;2.58;0.70;;;16.20;99.90;;;;;;5015795;28;20038;-65
2023/07/21 00:25:16;;;;;;;1.10;0.85;;;16.20;99.90;;;;;;5019750;28;20041;-67
2023/07/21 00:27:44;;;;;;;1.77;0.70;;;16.20;99.90;;;;;;5010604;28;20042;-66
2023/07/21 00:30:11;;;;;;;1.10;1.00;;;16.10;99.90;;;;;;5007075;28;20053;-65
2023/07/21 00:32:40;;;;;;;3.40;1.10;;;16.10;99.90;;;;;;5015506;28;20048;-66
2023/07/21 00:35:08;;;;;;;1.23;0.85;;;16.10;99.90;;;;;;5011556;28;20495;-65
2023/07/21 00:37:36;;;;;;;4.65;0.98;;;16.00;99.90;;;;;;5011892;28;20411;-66
2023/07/21 00:40:10;;;;;;;4.78;1.08;;;16.00;99.90;;;;;;5015072;28;20096;-65
2023/07/21 00:42:37;;;;;;;2.22;0.82;;;16.00;99.90;;;;;;5013814;28;20049;-68
2023/07/21 00:45:05;;;;;;;2.08;0.60;;;15.90;99.90;;;;;;5037425;28;20045;-65
2023/07/21 00:47:35;;;;;;;5.68;1.27;;;15.90;99.90;;;;;;5011417;28;20083;-65
2023/07/21 00:50:02;;;;;;;1.95;1.23;;;15.90;99.90;;;;;;5012841;28;20050;-66
2023/07/21 00:52:29;;;;;;;3.15;1.55;;;15.80;99.90;;;;;;5010378;28;20121;-65
2023/07/21 00:54:56;;;;;;;1.17;0.80;;;15.80;99.90;;;;;;5006560;28;20481;-65
2023/07/21 00:57:24;;;;;;;0.88;0.80;;;15.80;99.90;;;;;;5014172;28;20061;-69
2023/07/21 00:59:51;;;;;;;3.83;1.23;;;15.80;99.90;;;;;;5019056;28;20055;-65
2023/07/21 01:02:18;;;;;;;3.47;0.90;;;15.80;99.90;;;;;;5010858;28;20068;-66
2023/07/21 01:04:46;;;;;;;8.80;1.02;;;15.70;99.90;;;;;;5019100;28;20045;-65
2023/07/21 01:07:15;;;;;;;2.80;1.20;;;15.70;99.90;;;;;;5016961;28;20042;-65
2023/07/21 01:09:43;;;;;;;4.47;1.35;;;15.70;99.90;;;;;;5040490;28;20611;-66
2023/07/21 01:12:11;;;;;;;2.13;1.20;;;15.60;99.90;;;;;;5016583;28;20045;-67
2023/07/21 01:14:38;;;;;;;2.88;1.73;;;15.60;99.90;;;;;;5016327;28;20439;-65
2023/07/21 01:17:08;;;;;;;3.78;1.50;;;15.60;99.90;;;;;;5011180;28;20053;-67
2023/07/21 01:19:37;;;;;;;2.95;1.58;;;15.60;99.90;;;;;;5007656;28;20041;-66
2023/07/21 01:22:40;;;;;;;2.92;1.52;;;15.50;99.90;;;;;;5049538;28;20049;-66
2023/07/21 01:25:12;;;;;;;2.00;1.38;;;15.50;99.90;;;;;;5004079;28;20476;-65
2023/07/21 01:27:40;;;;;;;3.72;1.60;;;15.50;99.90;;;;;;5009765;28;20046;-66
2023/07/21 01:30:11;;;;;;;1.65;0.80;;;15.50;99.90;;;;;;5021578;28;20041;-65
2023/07/21 01:32:40;;;;;;;2.63;2.10;;;15.50;99.90;;;;;;5019724;28;20042;-65
2023/07/21 01:35:09;;;;;;;2.10;1.45;;;15.50;99.90;;;;;;5016864;28;20127;-66
2023/07/21 01:37:40;;;;;;;1.58;1.40;;;15.40;99.90;;;;;;5015740;28;20053;-66
2023/07/21 01:40:09;;;;;;;8.00;2.35;;;15.40;99.90;;;;;;5019722;28;20068;-66
2023/07/21 01:42:37;;;;;;;4.05;1.48;;;15.40;99.90;;;;;;5020783;28;20050;-67
2023/07/21 01:45:04;;;;;;;6.03;2.30;;;15.40;99.90;;;;;;5015731;28;20095;-65
2023/07/21 01:47:35;;;;;;;4.10;1.33;;;15.30;99.90;;;;;;5013723;28;20057;-67
2023/07/21 01:50:06;;;;;;;3.70;2.08;;;15.30;99.90;;;;;;5014570;28;20053;-67
2023/07/21 01:52:35;;;;;;;3.17;1.25;;;15.30;99.90;;;;;;5010741;28;20128;-67
2023/07/21 01:55:15;;;;;;;5.28;1.45;;;15.20;99.90;;;;;;5011483;28;20124;-65
2023/07/21 01:57:46;;;;;;;5.38;2.22;;;15.20;99.90;;;;;;5009867;28;20041;-66
2023/07/21 02:00:14;;;;;;;2.95;1.27;;;15.10;99.90;;;;;;5011434;28;20052;-65
2023/07/21 02:02:44;;;;;;;3.90;1.20;;;15.10;99.90;;;;;;5015296;28;20042;-64
2023/07/21 02:05:22;;;;;;;1.98;1.17;;;15.10;99.90;;;;;;5009769;28;20073;-66
2023/07/21 02:07:50;;;;;;;3.13;2.13;;;15.10;99.90;;;;;;5019069;28;20057;-65
2023/07/21 02:10:18;;;;;;;5.57;1.70;;;15.00;99.90;;;;;;5038382;28;20100;-65
2023/07/21 02:12:51;;;;;;;5.95;1.60;;;15.00;99.90;;;;;;5015414;28;20053;-66
2023/07/21 02:15:18;;;;;;;3.92;1.40;;;15.00;99.90;;;;;;5010199;28;20050;-65
2023/07/21 02:17:45;;;;;;;5.95;2.17;;;15.00;99.90;;;;;;5041075;28;20049;-66
2023/07/21 02:20:14;;;;;;;5.03;1.58;;;14.90;99.90;;;;;;5016367;28;20057;-66
2023/07/21 02:22:43;;;;;;;5.57;2.40;;;14.90;99.90;;;;;;5048882;28;20050;-65
2023/07/21 02:25:12;;;;;;;5.47;2.10;;;14.90;99.90;;;;;;5011728;28;20053;-65
2023/07/21 02:27:39;;;;;;;4.47;1.90;;;14.90;99.90;;;;;;5009855;28;20069;-65
2023/07/21 02:30:07;;;;;;;4.22;1.75;;;14.90;99.90;;;;;;5005589;28;20674;-65
2023/07/21 02:32:34;;;;;;;4.95;1.90;;;14.80;99.90;;;;;;5010654;28;20046;-67
2023/07/21 02:35:01;;;;;;;2.42;1.73;;;14.80;99.90;;;;;;5025160;28;20443;-66
2023/07/21 02:37:28;;;;;;;5.13;1.73;;;14.80;99.90;;;;;;5010212;28;20107;-66
2023/07/21 02:39:55;;;;;;;7.25;2.45;;;14.80;99.90;;;;;;5009272;28;20046;-67
2023/07/21 02:42:22;;;;;;;9.60;3.42;;;14.80;99.90;;;;;;5009781;28;21709;-66
2023/07/21 02:44:50;;;;;;;6.35;2.10;;;14.80;99.90;;;;;;5015213;28;20061;-65
2023/07/21 02:47:17;;;;;;;4.53;1.80;;;14.80;99.90;;;;;;5011463;28;20069;-65
2023/07/21 02:49:44;;;;;;;3.38;1.73;;;14.80;99.90;;;;;;5009738;28;20066;-66
2023/07/21 02:52:12;;;;;;;4.13;1.80;;;14.80;99.90;;;;;;5011567;28;20713;-65
2023/07/21 02:54:45;;;;;;;8.13;2.70;;;14.80;99.90;;;;;;5014895;28;20055;-65
2023/07/21 02:57:12;;;;;;;7.85;1.98;;;14.80;99.90;;;;;;5015616;28;20073;-64
2023/07/21 02:59:39;;;;;;;5.20;1.58;;;14.80;99.90;;;;;;5015440;28;20060;-65
2023/07/21 03:02:06;;;;;;;7.53;3.05;;;14.80;99.90;;;;;;5009191;28;20064;-65
2023/07/21 03:04:47;;;;;;;4.32;1.67;;;14.80;99.90;;;;;;5034536;28;20065;-68
2023/07/21 03:07:16;;;;;;;5.03;2.40;;;14.80;99.90;;;;;;4992396;28;20077;-65
2023/07/21 03:09:48;;;;;;;4.65;2.47;;;14.80;99.90;;;;;;5010480;28;20050;-66
2023/07/21 03:12:20;;;;;;;3.88;1.95;;;14.80;99.90;;;;;;5005466;28;20050;-65
2023/07/21 03:15:15;;;;;;;6.63;2.35;;;14.80;99.90;;;;;;5009673;28;20473;-67
2023/07/21 03:18:04;;;;;;;;;;;14.80;99.90;;;;;;5017258;28;20054;-65
2023/07/21 03:21:00;;;;;;;4.60;2.30;;;14.80;99.90;;;;;;5011241;28;20355;-65
2023/07/21 03:23:28;;;;;;;3.40;1.98;;;14.80;99.90;;;;;;5000641;28;20038;-64
2023/07/21 03:25:55;;;;;;;7.95;1.60;;;14.70;99.90;;;;;;5005986;28;20523;-66
2023/07/21 03:28:25;;;;;;;4.88;1.67;;;14.70;99.90;;;;;;5043499;28;20240;-66
2023/07/21 03:31:02;;;;;;;4.55;1.83;;;14.80;99.90;;;;;;5003862;28;20041;-66
2023/07/21 03:33:37;;;;;;;4.18;2.42;;;14.80;99.90;;;;;;5003258;28;20285;-66
2023/07/21 03:36:20;;;;;;;7.18;2.15;;;14.80;99.90;;;;;;5017193;28;20055;-65
2023/07/21 03:38:48;;;;;;;4.57;1.92;;;14.90;99.90;;;;;;5016111;28;20045;-65
2023/07/21 03:41:16;;;;;;;10.85;2.20;;;14.90;99.90;;;;;;5015205;28;20144;-67
2023/07/21 03:43:43;;;;;;;3.72;1.40;;;15.00;99.90;;;;;;5037771;28;20168;-67
2023/07/21 03:46:12;;;;;;;6.47;1.75;;;14.90;99.90;;;;;;5023651;28;20049;-66
2023/07/21 03:48:58;;;;;;;13.45;2.35;;;15.00;99.90;;;;;;5015212;28;20274;-66
2023/07/21 03:51:26;;;;;;;2.72;2.00;;;15.00;99.90;;;;;;5026479;28;20058;-66
2023/07/21 03:53:53;;;;;;;3.75;1.52;;;14.90;99.90;;;;;;5013800;28;20049;-65
2023/07/21 03:56:24;;;;;;;3.55;2.17;;;14.90;99.90;;;;;;5021891;28;20069;-66
2023/07/21 03:58:55;;;;;;;7.50;2.75;;;14.90;99.90;;;;;;5012093;28;20049;-66
2023/07/21 04:01:24;;;;;;;4.80;2.47;;;14.90;99.90;;;;;;5014951;28;20041;-67
2023/07/21 04:03:51;;;;;;;4.60;2.25;;;14.90;99.90;;;;;;5011659;28;20155;-66
2023/07/21 04:06:21;;;;;;;3.50;1.60;;;14.90;99.90;;;;;;5012540;28;20133;-66
2023/07/21 04:08:47;;;;;;;5.07;1.90;;;14.90;99.90;;;;;;5014807;28;20061;-68
2023/07/21 04:11:14;;;;;;;6.10;2.45;;;15.00;99.90;;;;;;5006527;28;20049;-65
2023/07/21 04:13:41;;;;;;;2.85;2.00;;;14.90;99.90;;;;;;5018529;28;20053;-64
2023/07/21 04:16:08;;;;;;;3.55;1.50;;;15.00;99.90;;;;;;5017209;28;20049;-66
2023/07/21 04:18:36;;;;;;;5.63;1.98;;;14.90;99.90;;;;;;5015016;28;20138;-65
2023/07/21 04:21:03;;;;;;;5.45;2.25;;;14.90;99.90;;;;;;5014751;28;20739;-68
2023/07/21 04:23:30;;;;;;;8.18;1.77;;;14.90;99.90;;;;;;5015191;28;20494;-67
2023/07/21 04:25:58;;;;;;;3.10;1.52;;;14.80;99.90;;;;;;5048551;28;20053;-66
2023/07/21 04:28:25;;;;;;;9.15;2.15;;;14.80;99.90;;;;;;5038512;28;20062;-66
2023/07/21 04:30:53;;;;;;;3.88;1.90;;;14.90;99.90;;;;;;5003931;28;20053;-66
2023/07/21 04:33:21;;;;;;;5.10;2.38;;;14.90;99.90;;;;;;5045586;28;20141;-65
2023/07/21 04:35:49;;;;;;;4.57;1.63;;;14.90;99.90;;;;;;5013531;28;20120;-66
2023/07/21 04:38:22;;;;;;;3.25;1.42;;;14.90;99.90;;;;;;5017869;28;20484;-67
2023/07/21 04:40:54;;;;;;;3.53;1.90;;;14.90;99.90;;;;;;5044205;28;20148;-65
2023/07/21 04:43:21;;;;;;;3.67;2.47;;;14.90;99.90;;;;;;5014616;28;20441;-66
2023/07/21 04:45:48;;;;;;;5.38;1.33;;;14.90;99.90;;;;;;5045338;28;20045;-65
2023/07/21 04:48:25;;;;;;;5.63;3.17;;;14.90;99.90;;;;;;5046244;28;20532;-65
2023/07/21 04:50:53;;;;;;;3.88;2.00;;;14.90;99.90;;;;;;5049966;28;20045;-65
2023/07/21 04:53:21;;;;;;;14.68;2.35;;;14.90;99.90;;;;;;5012869;28;20060;-68
2023/07/21 04:55:49;;;;;;;3.22;1.58;;;14.90;99.90;;;;;;5017059;28;20126;-65
2023/07/21 04:58:17;;;;;;;3.63;1.30;;;15.00;99.90;;;;;;5010103;28;20810;-66
2023/07/21 05:00:44;;;;;;;2.90;1.63;;;15.00;99.90;;;;;;5012960;28;20129;-66
2023/07/21 05:03:12;;;;;;;2.97;1.83;;;15.10;99.90;;;;;;5043501;28;20064;-65
2023/07/21 05:05:41;;;;;;;3.30;1.80;;;15.10;99.90;;;;;;5047897;28;20045;-65
2023/07/21 05:08:08;;;;;;;1.92;1.55;;;15.00;99.90;;;;;;5016861;28;20085;-65
2023/07/21 05:10:35;;;;;;;4.82;1.42;;;15.00;99.90;;;;;;5012184;28;20148;-66
2023/07/21 05:13:06;;;;;;;7.07;3.50;;;15.10;99.90;;;;;;5005104;28;20609;-66
2023/07/21 05:16:00;;;;;;;6.65;2.53;;;15.00;99.90;;;;;;5009459;28;20057;-66
2023/07/21 05:18:48;;;;;;;8.77;2.80;;;15.10;99.90;;;;;;5016286;28;20115;-65
2023/07/21 05:21:33;;;;;;;6.53;2.08;;;15.10;99.90;;;;;;5012184;28;20476;-65
2023/07/21 05:24:08;;;;;;;5.25;1.85;;;15.10;99.90;;;;;;5013389;28;20439;-66
2023/07/21 05:26:36;;;;;;;5.05;3.88;;;15.10;99.90;;;;;;5008406;28;20045;-67
2023/07/21 05:29:15;;;;;;;4.57;2.58;;;15.10;99.90;;;;;;5008608;28;20795;-66
2023/07/21 05:31:45;;;;;;;3.35;2.15;;;15.10;99.90;;;;;;5012686;28;20111;-66
2023/07/21 05:34:29;;;;;;;4.55;2.75;;;15.10;99.90;;;;;;5039799;28;20065;-68
2023/07/21 05:36:56;;;;;;;6.40;2.67;;;15.10;99.90;;;;;;5020659;28;20702;-66
2023/07/21 05:39:23;;;;;;;11.63;3.65;;;15.10;99.90;;;;;;5014839;28;20137;-64
2023/07/21 05:41:54;;;;;;;6.50;2.50;;;15.00;99.90;;;;;;5011085;28;20488;-66
2023/07/21 05:44:21;;;;;;;2.35;2.15;;;15.00;99.90;;;;;;5011202;28;20488;-65
2023/07/21 05:46:48;;;;;;;2.85;2.03;;;15.10;99.90;;;;;;5044571;28;20053;-67
2023/07/21 05:49:16;;;;;;;3.30;2.17;;;15.10;99.90;;;;;;5013083;28;20381;-68
2023/07/21 05:51:44;;;;;;;7.90;3.58;;;15.10;99.90;;;;;;5019961;28;20052;-64
2023/07/21 05:54:30;;;;;;;14.23;3.38;;;15.10;99.90;;;;;;5041986;28;20048;-65
2023/07/21 05:56:58;;;;;;;4.78;1.92;;;15.00;99.90;;;;;;5008213;28;20056;-66
2023/07/21 05:59:33;;;;;;;9.98;2.60;;;15.00;99.90;;;;;;5002626;28;20033;-65
2023/07/21 06:02:00;;;;;;;7.33;1.80;;;15.10;99.90;;;;;;5016151;28;20056;-65
2023/07/21 06:04:32;;;;;;;4.47;2.08;;;15.10;99.90;;;;;;5013312;28;20303;-65
2023/07/21 06:07:23;;;;;;;8.43;2.23;;;15.10;99.90;;;;;;5019966;28;20760;-66
2023/07/21 06:10:08;;;;;;;1.55;1.45;;;15.10;99.90;;;;;;5006084;28;20054;-66
2023/07/21 06:12:43;;;;;;;3.40;1.48;;;15.10;99.90;;;;;;5008014;28;20049;-65
2023/07/21 06:15:30;;;;;;;11.13;2.40;;;15.10;99.90;;;;;;5016454;28;20067;-67
2023/07/21 06:18:02;;;;;;;6.10;1.63;;;15.10;99.90;;;;;;5035056;28;20070;-66
2023/07/21 06:20:31;;;;;;;;;;;15.20;99.90;;;;;;5011845;28;20661;-65
2023/07/21 06:22:58;;;;;;;3.42;1.60;;;15.20;99.90;;;;;;5043255;28;19972;-65
2023/07/21 06:25:27;;;;;;;5.35;1.65;;;15.20;99.90;;;;;;5045515;28;20060;-69
2023/07/21 06:28:01;;;;;;;3.10;2.67;;;15.30;99.90;;;;;;5012725;28;20050;-66
2023/07/21 06:30:29;;;;;;;2.38;1.60;;;15.40;99.90;;;;;;5045928;28;20507;-65
2023/07/21 06:32:56;;;;;;;2.97;1.40;;;15.50;99.90;;;;;;5032053;28;20494;-66
2023/07/21 06:35:34;;;;;;;2.95;1.40;;;15.50;99.90;;;;;;5044493;28;20056;-69
2023/07/21 06:38:33;;;;;;;2.60;2.40;;;15.50;99.90;;;;;;5002809;28;20045;-65
2023/07/21 06:41:06;;;;;;;2.80;1.45;;;15.50;99.90;;;;;;5010129;28;20053;-67
2023/07/21 06:44:06;;;;;;;3.10;1.58;;;15.50;99.90;;;;;;5034802;28;20073;-65
2023/07/21 06:47:02;;;;;;;3.60;1.95;;;15.40;99.90;;;;;;4972390;28;20050;-66
2023/07/21 06:49:49;;;;;;;3.47;2.35;;;15.30;99.90;;;;;;5044710;28;20050;-66
2023/07/21 06:52:26;;;;;;;4.78;2.63;;;15.30;99.90;;;;;;5013322;28;20145;-65
2023/07/21 06:54:53;;;;;;;5.40;2.13;;;15.30;99.90;;;;;;5016224;28;20052;-68
2023/07/21 06:57:20;;;;;;;4.53;2.40;;;15.40;99.90;;;;;;5000517;28;20470;-65
2023/07/21 06:59:47;;;;;;;2.90;2.42;;;15.40;99.90;;;;;;5017383;28;20064;-65
2023/07/21 07:02:14;;;;;;;3.50;3.25;;;15.50;99.90;;;;;;5009101;28;20149;-66
2023/07/21 07:04:41;;;;;;;5.00;3.10;;;15.50;99.90;;;;;;5045927;28;20057;-66
2023/07/21 07:07:08;;;;;;;4.35;2.17;;;15.50;99.90;;;;;;5021295;28;20061;-65
2023/07/21 07:09:36;;;;;;;6.10;3.00;;;15.40;99.90;;;;;;5014071;28;20048;-67
2023/07/21 07:12:05;;;;;;;4.25;2.72;;;15.50;99.90;;;;;;5007928;28;20058;-65
2023/07/21 07:14:34;;;;;;;4.63;4.28;;;15.60;99.90;;;;;;5012474;28;20128;-65
2023/07/21 07:17:01;;;;;;;3.08;2.30;;;15.80;99.90;;;;;;5014172;28;20111;-65
2023/07/21 07:19:29;;;;;;;6.82;2.72;;;15.80;99.90;;;;;;5015433;28;20057;-67
2023/07/21 07:21:56;;;;;;;4.18;2.22;;;15.70;99.90;;;;;;5021691;28;20037;-66
2023/07/21 07:24:22;;;;;;;4.32;2.60;;;15.70;99.90;;;;;;5014935;28;20108;-66
2023/07/21 07:26:49;;;;;;;8.98;2.47;;;15.90;99.90;;;;;;5020484;28;20049;-68
2023/07/21 07:29:17;;;;;;;3.00;1.65;;;15.90;99.90;;;;;;5013239;28;20129;-65
2023/07/21 07:31:44;;;;;;;5.00;2.35;;;15.90;99.90;;;;;;5017659;28;20419;-66
2023/07/21 07:34:11;;;;;;;2.63;1.92;;;15.70;99.90;;;;;;5013178;28;20054;-66
2023/07/21 07:36:38;;;;;;;4.32;2.40;;;15.70;99.90;;;;;;5020111;28;20076;-66
2023/07/21 07:39:05;;;;;;;2.35;1.95;;;15.80;99.90;;;;;;5012711;28;20492;-68
2023/07/21 07:41:31;;;;;;;2.33;1.83;;;15.80;99.90;;;;;;5018001;28;20444;-67
2023/07/21 07:43:58;;;;;;;3.20;1.75;;;15.90;99.90;;;;;;5014562;28;20148;-68
2023/07/21 07:46:25;;;;;;;3.33;1.88;;;16.10;99.90;;;;;;5016868;28;20059;-67
2023/07/21 07:48:52;;;;;;;2.63;1.75;;;16.20;99.90;;;;;;5019985;28;20042;-65
2023/07/21 07:51:22;;;;;;;4.70;1.55;;;16.40;99.90;;;;;;5018887;28;20072;-67
2023/07/21 07:53:52;;;;;;;6.43;2.25;;;16.40;99.90;;;;;;5014578;28;20505;-65
2023/07/21 07:56:21;;;;;;;3.28;2.35;;;16.40;99.90;;;;;;5017256;28;20115;-65
2023/07/21 07:58:48;;;;;;;5.40;1.92;;;16.30;99.90;;;;;;5015715;28;20452;-65
2023/07/21 08:01:15;;;;;;;4.40;1.88;;;16.20;99.90;;;;;;5014246;28;20467;-66
2023/07/21 08:03:43;;;;;;;2.45;2.00;;;16.30;99.90;;;;;;5018665;28;20076;-66
2023/07/21 08:06:11;;;;;;;6.68;3.05;;;16.30;99.90;;;;;;5019349;28;20103;-65
2023/07/21 08:08:40;;;;;;;3.55;1.88;;;16.30;99.90;;;;;;5012976;28;20053;-66
2023/07/21 08:11:07;;;;;;;5.30;1.80;;;16.40;99.90;;;;;;5007874;28;20071;-65
2023/07/21 08:13:34;;;;;;;2.58;1.30;;;16.50;99.90;;;;;;5013055;28;20179;-68
2023/07/21 08:16:08;;;;;;;2.67;1.40;;;16.60;99.90;;;;;;5020143;28;20048;-66
2023/07/21 08:18:35;;;;;;;5.03;1.98;;;16.90;99.90;;;;;;5013687;28;20049;-68
2023/07/21 08:21:19;;;;;;;4.43;1.60;;;16.90;99.90;;;;;;5017540;28;20069;-68
2023/07/21 08:23:48;;;;;;;7.72;2.33;;;16.70;99.90;;;;;;5023807;28;20042;-66
2023/07/21 08:26:16;;;;;;;3.10;1.42;;;16.80;99.90;;;;;;5008052;28;20473;-67
2023/07/21 08:28:42;;;;;;;1.50;1.40;;;16.90;99.90;;;;;;5014673;28;20038;-66
2023/07/21 08:31:09;;;;;;;10.15;2.20;;;16.90;99.90;;;;;;5012559;28;20045;-65
2023/07/21 08:33:36;;;;;;;4.50;1.60;;;16.80;99.90;;;;;;5020352;28;20046;-66
2023/07/21 08:36:05;;;;;;;3.35;1.77;;;16.80;99.90;;;;;;5010648;28;20436;-65
2023/07/21 08:38:35;;;;;;;3.22;2.22;;;16.90;99.90;;;;;;5021120;28;20137;-66
2023/07/21 08:41:03;;;;;;;3.08;1.45;;;17.00;99.90;;;;;;5014285;28;20041;-66
2023/07/21 08:43:30;;;;;;;7.93;2.55;;;16.90;99.90;;;;;;5018860;28;20133;-68
2023/07/21 08:46:02;;;;;;;1.77;1.67;;;16.90;99.90;;;;;;5020339;28;20037;-67
2023/07/21 08:48:30;;;;;;;2.78;1.52;;;17.00;99.90;;;;;;5016876;28;20049;-66
2023/07/21 08:50:58;;;;;;;2.13;1.35;;;17.00;99.90;;;;;;5015168;28;20073;-71
2023/07/21 08:53:26;;;;;;;3.25;1.25;;;17.00;99.90;;;;;;5019967;28;20132;-68
2023/07/21 08:55:54;;;;;;;5.57;2.08;;;17.00;99.90;;;;;;5017283;28;20453;-66
2023/07/21 08:58:22;;;;;;;5.43;1.38;;;17.10;99.90;;;;;;5015741;28;20152;-66
2023/07/21 09:00:53;;;;;;;4.07;1.20;;;17.20;99.90;;;;;;5009442;28;20770;-68
2023/07/21 09:03:22;;;;;;;3.25;1.77;;;17.30;99.90;;;;;;5015788;28;21176;-66
2023/07/21 09:05:50;;;;;;;1.70;1.45;;;17.20;99.90;;;;;;5016105;28;20044;-68
2023/07/21 09:08:21;;;;;;;3.05;1.45;;;17.10;99.90;;;;;;5011503;28;20045;-67
2023/07/21 09:10:49;;;;;;;2.78;1.95;;;16.90;99.90;;;;;;5011632;28;20510;-67
2023/07/21 09:13:22;;;;;;;3.55;1.50;;;16.90;99.90;;;;;;5011715;28;20052;-66
2023/07/21 09:15:59;;;;;;;1.38;1.20;;;16.80;99.90;;;;;;5011503;28;20045;-66
2023/07/21 09:18:34;;;;;;;2.90;1.92;;;16.80;99.90;;;;;;5014528;28;20065;-65
2023/07/21 09:21:01;;;;;;;5.03;2.15;;;16.90;99.90;;;;;;5019123;28;20464;-68
2023/07/21 09:23:29;;;;;;;3.33;1.55;;;16.90;99.90;;;;;;5021185;28;20107;-65
2023/07/21 09:25:59;;;;;;;2.70;1.65;;;17.00;99.90;;;;;;5011894;28;20541;-65
2023/07/21 09:28:41;;;;;;;4.25;2.13;;;17.20;99.90;;;;;;5014111;28;20131;-65
2023/07/21 09:31:08;;;;;;;4.10;2.03;;;17.30;99.90;;;;;;5008239;28;20034;-66
2023/07/21 09:33:41;;;;;;;3.75;1.92;;;17.30;99.90;;;;;;5018981;28;20127;-67
2023/07/21 09:36:10;;;;;;;3.40;1.25;;;17.20;99.90;;;;;;5009770;28;20095;-66
2023/07/21 09:38:39;;;;;;;3.50;1.55;;;17.10;99.90;;;;;;5013609;28;20045;-66
2023/07/21 09:41:08;;;;;;;2.70;1.63;;;17.10;99.90;;;;;;5011188;28;20156;-66
2023/07/21 09:43:36;;;;;;;1.73;1.20;;;17.20;99.90;;;;;;5011535;28;20045;-66
2023/07/21 09:46:06;;;;;;;4.57;1.40;;;17.20;99.90;;;;;;5013141;28;20037;-66
2023/07/21 09:48:53;;;;;;;5.45;1.17;;;17.20;99.90;;;;;;5014388;28;20482;-67
2023/07/21 09:51:20;;;;;;;5.18;1.75;;;17.30;99.90;;;;;;5018409;28;20081;-68
2023/07/21 09:53:49;;;;;;;5.15;1.80;;;17.30;99.90;;;;;;5013486;28;20127;-65
2023/07/21 09:56:20;;;;;;;1.50;1.42;;;17.30;99.90;;;;;;5015041;28;20041;-68
2023/07/21 09:59:02;;;;;;;2.40;2.05;;;17.40;99.90;;;;;;5008904;28;20037;-68
2023/07/21 10:01:30;;;;;;;3.72;1.38;;;17.40;99.90;;;;;;5009209;28;20046;-66
2023/07/21 10:03:58;;;;;;;3.67;1.35;;;17.40;99.90;;;;;;5008913;28;20373;-65
2023/07/21 10:06:25;;;;;;;3.53;1.67;;;17.30;99.90;;;;;;5012081;28;20056;-65
2023/07/21 10:08:53;;;;;;;5.03;2.03;;;17.30;99.90;;;;;;5006223;28;20151;-66
2023/07/21 10:11:20;;;;;;;5.18;1.60;;;17.40;99.90;;;;;;5010059;28;20141;-66
2023/07/21 10:13:47;;;;;;;3.50;1.73;;;17.60;99.90;;;;;;5008536;28;20038;-66
2023/07/21 10:16:19;;;;;;;2.63;1.48;;;17.90;99.90;;;;;;5012178;28;20068;-66
2023/07/21 10:19:06;;;;;;;3.22;1.65;;;17.90;99.90;;;;;;5014200;28;20365;-67
2023/07/21 10:21:48;;;;;;;5.35;1.42;;;18.00;99.90;;;;;;5013549;28;20141;-66
2023/07/21 10:24:23;;;;;;;2.83;1.40;;;18.10;99.90;;;;;;5015766;28;20048;-65
2023/07/21 10:26:56;;;;;;;4.28;1.63;;;18.30;99.90;;;;;;5018056;28;20852;-65
2023/07/21 10:29:23;;;;;;;2.53;1.27;;;18.40;99.90;;;;;;5012312;28;20049;-66
2023/07/21 10:31:52;;;;;;;3.67;1.30;;;18.50;99.90;;;;;;5011048;28;20521;-65
2023/07/21 10:34:24;;;;;;;2.78;1.70;;;18.50;99.90;;;;;;5013285;28;20053;-66
2023/07/21 10:36:58;;;;;;;2.15;1.20;;;18.40;99.90;;;;;;5011782;28;20068;-65
2023/07/21 10:39:31;;;;;;;2.58;2.00;;;18.60;99.90;;;;;;5012639;28;20046;-65
2023/07/21 10:42:03;;;;;;;3.33;2.17;;;18.70;99.90;;;;;;5011948;28;20125;-67
2023/07/21 10:44:54;;;;;;;3.50;2.00;;;19.00;99.90;;;;;;5010932;28;20049;-67
2023/07/21 10:47:21;;;;;;;1.42;1.13;;;19.10;99.90;;;;;;5006858;28;20046;-67
2023/07/21 10:49:49;;;;;;;2.58;1.40;;;19.20;99.90;;;;;;5009626;28;20042;-66
2023/07/21 10:52:16;;;;;;;1.50;1.13;;;19.30;99.90;;;;;;5010602;28;20553;-66
2023/07/21 10:54:43;;;;;;;1.65;1.15;;;19.30;99.90;;;;;;5014412;28;20045;-66
2023/07/21 10:57:11;;;;;;;3.45;1.83;;;19.40;99.90;;;;;;5012989;28;20056;-68
2023/07/21 10:59:38;;;;;;;1.95;1.20;;;19.40;99.90;;;;;;5015974;28;20053;-67
2023/07/21 11:02:06;;;;;;;4.85;1.63;;;19.50;99.90;;;;;;5013681;28;20050;-66
2023/07/21 11:04:35;;;;;;;2.80;1.77;;;19.50;99.90;;;;;;5005693;28;20050;-66
2023/07/21 11:07:03;;;;;;;1.52;0.90;;;19.40;99.90;;;;;;5014227;28;20045;-67
2023/07/21 11:09:33;;;;;;;3.55;1.60;;;19.30;99.90;;;;;;5005468;28;20049;-67
2023/07/21 11:12:03;;;;;;;1.75;1.33;;;19.50;99.90;;;;;;5005375;28;20088;-66
2023/07/21 11:14:31;;;;;;;5.22;2.03;;;19.60;99.90;;;;;;5004693;28;20045;-67
2023/07/21 11:17:00;;;;;;;2.15;1.00;;;19.60;99.90;;;;;;5014293;28;20491;-66
2023/07/21 11:19:29;;;;;;;4.38;1.52;;;19.80;99.90;;;;;;5010936;28;20042;-68
2023/07/21 11:21:56;;;;;;;2.97;0.77;;;19.50;99.90;;;;;;5017806;28;20132;-67
2023/07/21 11:24:28;;;;;;;1.20;1.10;;;19.40;99.90;;;;;;5015500;28;20052;-66
2023/07/21 11:27:01;;;;;;;1.00;0.80;;;19.50;99.90;;;;;;5017810;28;20364;-66
2023/07/21 11:29:39;;;;;;;1.63;0.98;;;19.60;99.90;;;;;;5007246;28;20448;-67
2023/07/21 11:32:26;;;;;;;3.35;1.13;;;19.90;99.90;;;;;;5012153;28;20443;-66
2023/07/21 11:35:02;;;;;;;2.78;1.20;;;20.00;99.90;;;;;;5012855;28;20119;-66
2023/07/21 11:37:42;;;;;;;6.63;1.35;;;20.00;99.90;;;;;;5011161;28;20125;-68
2023/07/21 11:40:15;;;;;;;1.83;0.65;;;19.90;99.90;;;;;;5011542;28;20399;-67
2023/07/21 11:42:46;;;;;;;2.13;0.77;;;19.90;99.90;;;;;;5008830;28;20037;-66
2023/07/21 11:45:36;;;;;;;3.85;1.55;;;20.20;99.90;;;;;;5007424;28;20049;-66
2023/07/21 11:48:17;;;;;;;1.45;1.35;;;20.40;99.90;;;;;;5013934;28;20053;-66
2023/07/21 11:50:52;;;;;;;1.80;0.85;;;20.30;99.90;;;;;;5012700;28;20052;-65
2023/07/21 11:53:20;;;;;;;1.17;0.75;;;20.00;99.90;;;;;;5017699;28;20050;-66
2023/07/21 11:55:48;;;;;;;2.05;0.82;;;19.90;99.90;;;;;;5010364;28;20072;-66
2023/07/21 11:58:15;;;;;;;1.20;0.82;;;20.10;99.90;;;;;;5017415;28;20087;-66
2023/07/21 12:00:42;;;;;;;1.95;0.90;;;20.00;99.90;;;;;;5008504;28;20045;-66
2023/07/21 12:03:10;;;;;;;1.13;0.70;;;20.00;99.90;;;;;;5018380;28;20119;-65
2023/07/21 12:05:38;;;;;;;1.90;1.35;;;20.10;99.90;;;;;;5011502;28;20104;-66
2023/07/21 12:08:06;;;;;;;2.70;0.88;;;20.00;99.90;;;;;;5013935;28;20159;-66
2023/07/21 12:10:33;;;;;;;1.63;1.00;;;20.10;99.90;;;;;;5009661;28;20533;-66
2023/07/21 12:13:03;;;;;;;2.10;1.08;;;20.10;99.90;;;;;;5016542;28;20215;-66
2023/07/21 12:15:31;;;;;;;4.35;1.23;;;20.40;99.90;;;;;;5013018;28;20042;-66
2023/07/21 12:17:58;;;;;;;1.38;1.10;;;20.40;99.90;;;;;;5021219;28;20046;-68
2023/07/21 12:20:26;;;;;;;3.35;1.55;;;20.30;99.90;;;;;;5018481;28;20078;-66
2023/07/21 12:22:53;;;;;;;4.72;1.10;;;20.10;99.90;;;;;;5012095;28;20037;-68
2023/07/21 12:25:20;;;;;;;2.63;1.35;;;20.10;99.90;;;;;;5016016;28;20435;-67
2023/07/21 12:27:47;;;;;;;0.93;0.80;;;20.10;99.60;;;;;;5017747;28;20046;-67
2023/07/21 12:30:15;;;;;;;2.60;1.20;;;20.40;99.90;;;;;;5013519;28;20047;-68
2023/07/21 12:32:42;;;;;;;3.75;1.40;;;20.60;99.90;;;;;;5014651;28;20120;-66
2023/07/21 12:35:09;;;;;;;1.15;0.73;;;20.70;99.90;;;;;;5010860;28;20044;-66
2023/07/21 12:37:39;;;;;;;1.33;0.93;;;20.50;99.90;;;;;;5008928;28;20054;-68
2023/07/21 12:40:12;;;;;;;1.35;0.82;;;20.50;99.90;;;;;;5013782;28;20494;-67
2023/07/21 12:42:40;;;;;;;3.90;1.40;;;20.60;99.90;;;;;;5011846;28;20046;-69
2023/07/21 12:45:07;;;;;;;3.13;0.75;;;20.50;99.20;;;;;;5011931;28;20311;-68
2023/07/21 12:47:37;;;;;;;1.65;1.10;;;20.70;99.50;;;;;;5010828;28;20085;-67
2023/07/21 12:50:05;;;;;;;2.13;0.90;;;20.90;99.90;;;;;;5016533;28;20048;-67
2023/07/21 12:52:32;;;;;;;3.42;1.45;;;21.30;98.60;;;;;;5005237;28;20526;-67
2023/07/21 12:54:59;;;;;;;2.10;1.15;;;21.20;98.00;;;;;;5015093;28;20041;-66
2023/07/21 12:57:26;;;;;;;1.95;0.90;;;21.20;97.60;;;;;;5009248;28;20042;-69
2023/07/21 12:59:53;;;;;;;1.83;1.30;;;21.10;98.40;;;;;;5012365;28;20091;-65
2023/07/21 13:02:20;;;;;;;4.15;1.50;;;21.20;98.30;;;;;;5016695;28;20038;-65
2023/07/21 13:04:48;;;;;;;4.53;1.75;;;21.20;97.40;;;;;;5015065;28;20052;-67